createdAt,value
2023-03-22T00:00:50.505Z,7.35
2023-03-22T00:05:57.563Z,7.82
2023-03-22T00:11:00.488Z,7.27
2023-03-22T00:16:01.966Z,6.05
2023-03-22T00:21:03.952Z,4.88
2023-03-22T00:26:07.520Z,7.38
2023-03-22T00:31:10.580Z,4.70
2023-03-22T00:36:12.780Z,3.95
2023-03-22T00:41:17.906Z,4.07
2023-03-22T00:46:20.811Z,5.57
2023-03-22T00:51:22.311Z,3.42
2023-03-22T00:56:25.170Z,6.18
2023-03-22T01:01:26.689Z,5.88
2023-03-22T01:06:28.232Z,5.03
2023-03-22T01:11:31.116Z,3.63
2023-03-22T01:16:32.723Z,3.05
2023-03-22T01:21:34.310Z,3.17
2023-03-22T01:26:37.129Z,4.13
2023-03-22T01:31:38.745Z,2.90
2023-03-22T01:36:40.227Z,4.03
2023-03-22T01:41:43.213Z,4.38
2023-03-22T01:46:46.258Z,3.75
2023-03-22T01:51:51.169Z,4.18
2023-03-22T01:56:54.226Z,4.38
2023-03-22T02:01:55.760Z,4.68
2023-03-22T02:06:58.964Z,4.10
2023-03-22T02:12:10.956Z,6.07
2023-03-22T02:17:23.284Z,2.50
2023-03-22T02:22:54.631Z,3.85
2023-03-22T02:28:21.489Z,5.18
2023-03-22T02:33:57.180Z,3.03
2023-03-22T02:39:08.180Z,4.47
2023-03-22T02:44:17.456Z,2.80
2023-03-22T02:49:26.753Z,2.80
2023-03-22T02:54:35.969Z,3.95
2023-03-22T02:59:40.189Z,16.83
2023-03-22T03:04:46.126Z,5.97
2023-03-22T03:09:50.216Z,5.72
2023-03-22T03:14:52.169Z,3.63
2023-03-22T03:20:08.338Z,4.22
2023-03-22T03:25:21.893Z,3.28
2023-03-22T03:30:29.457Z,3.65
2023-03-22T03:35:36.364Z,4.13
2023-03-22T03:40:41.797Z,6.67
2023-03-22T03:45:44.289Z,3.78
2023-03-22T03:50:47.939Z,5.03
2023-03-22T03:55:50.822Z,5.70
2023-03-22T04:00:52.295Z,4.35
2023-03-22T04:05:53.781Z,5.93
2023-03-22T04:10:56.561Z,8.88
2023-03-22T04:15:58.077Z,8.90
2023-03-22T04:20:59.615Z,6.22
2023-03-22T04:26:02.432Z,5.05
2023-03-22T04:31:03.978Z,6.00
2023-03-22T04:36:06.783Z,8.55
2023-03-22T04:41:10.315Z,5.75
2023-03-22T04:46:11.933Z,7.75
2023-03-22T04:51:13.441Z,5.63
2023-03-22T04:56:16.452Z,6.03
2023-03-22T05:01:18.603Z,7.97
2023-03-22T05:06:20.215Z,5.07
2023-03-22T05:11:23.141Z,7.35
2023-03-22T05:16:25.167Z,5.20
2023-03-22T05:21:26.654Z,5.75
2023-03-22T05:26:29.482Z,5.75
2023-03-22T05:31:31.062Z,5.25
2023-03-22T05:36:32.733Z,7.18
2023-03-22T05:41:36.818Z,6.18
2023-03-22T05:46:38.603Z,9.57
2023-03-22T05:51:40.091Z,12.15
2023-03-22T05:56:42.983Z,13.20
2023-03-22T06:01:44.485Z,6.72
2023-03-22T06:06:45.915Z,7.15
2023-03-22T06:11:48.714Z,8.27
2023-03-22T06:16:50.219Z,7.38
2023-03-22T06:21:51.821Z,9.77
2023-03-22T06:26:54.670Z,11.80
2023-03-22T06:31:56.236Z,10.65
2023-03-22T06:36:57.746Z,10.10
2023-03-22T06:42:00.700Z,11.20
2023-03-22T06:47:02.628Z,11.27
2023-03-22T06:52:04.509Z,13.68
2023-03-22T06:57:07.285Z,12.10
2023-03-22T07:02:11.560Z,11.88
2023-03-22T07:07:13.087Z,10.23
2023-03-22T07:12:16.076Z,10.43
2023-03-22T07:17:17.709Z,10.48
2023-03-22T07:22:19.198Z,9.35
2023-03-22T07:27:22.001Z,11.48
2023-03-22T07:32:23.561Z,10.30
2023-03-22T07:37:25.182Z,13.50
2023-03-22T07:42:28.070Z,14.50
2023-03-22T07:47:40.343Z,7.07
2023-03-22T07:52:42.775Z,10.45
2023-03-22T07:57:45.930Z,10.32
2023-03-22T08:02:47.426Z,9.98
2023-03-22T08:07:49.173Z,6.93
2023-03-22T08:12:52.019Z,12.80
2023-03-22T08:17:53.672Z,10.80
2023-03-22T08:22:55.192Z,4.80
2023-03-22T08:27:58.056Z,6.07
2023-03-22T08:32:59.584Z,4.53
2023-03-22T08:38:01.901Z,9.40
2023-03-22T08:43:04.728Z,5.95
2023-03-22T08:48:06.780Z,6.78
2023-03-22T08:53:08.249Z,3.50
2023-03-22T08:58:11.719Z,6.25
2023-03-22T09:03:13.525Z,3.85
2023-03-22T09:08:19.133Z,5.05
2023-03-22T09:13:22.737Z,4.55
2023-03-22T09:18:25.217Z,4.70
2023-03-22T09:23:26.679Z,7.95
2023-03-22T09:28:30.503Z,5.15
2023-03-22T09:33:32.169Z,3.78
2023-03-22T09:38:34.004Z,3.92
2023-03-22T09:43:42.204Z,4.78
2023-03-22T09:48:48.240Z,4.38
2023-03-22T09:53:50.055Z,3.38
2023-03-22T09:59:02.216Z,4.00
2023-03-22T10:04:20.877Z,4.00
2023-03-22T10:09:29.324Z,2.83
2023-03-22T10:14:38.111Z,4.38
2023-03-22T10:19:48.758Z,3.70
2023-03-22T10:24:52.075Z,2.83
2023-03-22T10:29:59.495Z,4.45
2023-03-22T10:35:01.027Z,2.53
2023-03-22T10:40:04.485Z,5.65
2023-03-22T10:45:12.755Z,3.45
2023-03-22T10:50:19.360Z,2.80
2023-03-22T10:55:20.999Z,4.63
2023-03-22T11:00:24.436Z,2.13
2023-03-22T11:05:28.312Z,2.83
2023-03-22T11:10:31.274Z,3.88
2023-03-22T11:15:37.234Z,5.75
2023-03-22T11:20:40.984Z,4.78
2023-03-22T11:25:46.764Z,3.65
2023-03-22T11:31:01.971Z,4.55
2023-03-22T11:36:14.597Z,5.75
2023-03-22T11:41:22.891Z,5.63
2023-03-22T11:46:25.817Z,2.63
2023-03-22T11:51:29.519Z,3.20
2023-03-22T11:56:31.225Z,3.85
2023-03-22T12:01:42.733Z,3.53
2023-03-22T12:06:44.493Z,3.05
2023-03-22T12:11:49.913Z,2.35
2023-03-22T12:16:58.170Z,2.88
2023-03-22T12:22:00.478Z,2.60
2023-03-22T12:27:07.212Z,3.88
2023-03-22T12:32:17.657Z,4.07
2023-03-22T12:37:23.999Z,4.18
2023-03-22T12:42:34.707Z,2.80
2023-03-22T12:47:41.502Z,2.38
2023-03-22T12:52:46.703Z,3.43
2023-03-22T12:57:48.690Z,4.80
2023-03-22T13:02:58.699Z,3.22
2023-03-22T13:08:00.476Z,4.03
2023-03-22T13:13:31.526Z,3.88
2023-03-22T13:18:57.539Z,5.18
2023-03-22T13:24:18.804Z,7.38
2023-03-22T13:29:22.876Z,4.80
2023-03-22T13:34:37.703Z,3.88
2023-03-22T13:39:40.215Z,3.50
2023-03-22T13:44:42.172Z,8.38
2023-03-22T13:49:48.667Z,20.60
2023-03-22T13:54:52.578Z,8.45
2023-03-22T14:00:11.220Z,4.28
2023-03-22T14:05:20.044Z,6.75
2023-03-22T14:10:26.420Z,3.35
2023-03-22T14:15:32.445Z,4.63
2023-03-22T14:20:37.778Z,2.92
